createdAt,value
2016-08-24T00:00:19.227Z,0
2016-08-24T00:01:21.327Z,0
2016-08-24T00:02:20.641Z,0
2016-08-24T00:03:21.322Z,0
2016-08-24T00:04:19.896Z,0
2016-08-24T00:05:20.609Z,0
2016-08-24T00:06:19.889Z,0
2016-08-24T00:07:19.876Z,0
2016-08-24T00:08:20.593Z,0
2016-08-24T00:09:19.864Z,0
2016-08-24T00:10:19.142Z,0
2016-08-24T00:11:19.146Z,0
2016-08-24T00:12:20.544Z,0
2016-08-24T00:13:19.838Z,0
2016-08-24T00:14:21.290Z,0
2016-08-24T00:15:21.938Z,0
2016-08-24T00:16:20.505Z,0
2016-08-24T00:17:20.515Z,0
2016-08-24T00:18:21.205Z,0
2016-08-24T00:19:20.495Z,0
2016-08-24T00:20:19.794Z,0
2016-08-24T00:21:20.485Z,0
2016-08-24T00:22:20.478Z,0
2016-08-24T00:23:19.766Z,0
2016-08-24T00:24:19.752Z,0
2016-08-24T00:25:20.468Z,0
2016-08-24T00:26:21.156Z,0
2016-08-24T00:27:20.422Z,0
2016-08-24T00:28:20.477Z,0
2016-08-24T00:29:20.407Z,0
2016-08-24T00:30:19.694Z,0
2016-08-24T00:31:20.403Z,0
2016-08-24T00:32:19.684Z,0
2016-08-24T00:33:20.387Z,0
2016-08-24T00:34:21.089Z,0
2016-08-24T00:35:19.669Z,0
2016-08-24T00:36:19.649Z,0
2016-08-24T00:37:20.358Z,0
2016-08-24T00:38:19.634Z,0
2016-08-24T00:39:19.683Z,0
2016-08-24T00:40:18.909Z,0
2016-08-24T00:41:21.034Z,0
2016-08-24T00:42:21.032Z,0
2016-08-24T00:43:18.890Z,0
2016-08-24T00:44:20.301Z,0
2016-08-24T00:45:19.586Z,0
2016-08-24T00:46:20.288Z,0
2016-08-24T00:47:20.990Z,0
2016-08-24T00:48:19.579Z,0
2016-08-24T00:49:19.547Z,0
2016-08-24T00:50:20.259Z,0
2016-08-24T00:51:20.244Z,0
2016-08-24T00:52:19.526Z,0
2016-08-24T00:53:20.991Z,0
2016-08-24T00:54:18.832Z,0
2016-08-24T00:55:20.923Z,0
2016-08-24T00:56:21.624Z,0
2016-08-24T00:57:20.903Z,0
2016-08-24T00:58:19.479Z,0
2016-08-24T00:59:19.490Z,0
2016-08-24T01:00:19.457Z,0
2016-08-24T01:01:19.487Z,0
2016-08-24T01:02:19.451Z,0
2016-08-24T01:03:20.856Z,0
2016-08-24T01:04:20.850Z,0
2016-08-24T01:05:18.715Z,0
2016-08-24T01:06:19.413Z,0
2016-08-24T01:07:20.852Z,0
2016-08-24T01:08:19.405Z,0
2016-08-24T01:09:18.681Z,0
2016-08-24T01:10:20.093Z,0
2016-08-24T01:11:19.374Z,0
2016-08-24T01:12:19.379Z,0
2016-08-24T01:13:20.785Z,0
2016-08-24T01:14:20.059Z,0
2016-08-24T01:15:19.346Z,0
2016-08-24T01:16:19.337Z,0
2016-08-24T01:17:20.036Z,0
2016-08-24T01:18:19.326Z,0
2016-08-24T01:19:20.729Z,0
2016-08-24T01:20:20.737Z,0
2016-08-24T01:21:20.011Z,0
2016-08-24T01:22:18.586Z,0
2016-08-24T01:23:19.289Z,0
2016-08-24T01:24:19.981Z,0
2016-08-24T01:25:18.556Z,0
2016-08-24T01:26:19.258Z,0
2016-08-24T01:27:19.956Z,0
2016-08-24T01:28:19.943Z,0
2016-08-24T01:29:19.231Z,0
2016-08-24T01:30:21.350Z,0
2016-08-24T01:31:19.218Z,0
2016-08-24T01:32:21.335Z,0
2016-08-24T01:33:19.906Z,0
2016-08-24T01:34:19.910Z,0
2016-08-24T01:35:18.482Z,0
2016-08-24T01:36:20.598Z,0
2016-08-24T01:37:18.468Z,0
2016-08-24T01:38:20.576Z,0
2016-08-24T01:39:19.854Z,0
2016-08-24T01:40:20.559Z,0
2016-08-24T01:41:20.558Z,0
2016-08-24T01:42:19.126Z,0
2016-08-24T01:43:19.845Z,0
2016-08-24T01:44:19.114Z,0
2016-08-24T01:45:19.830Z,0
2016-08-24T01:46:19.814Z,0
2016-08-24T01:47:21.205Z,0
2016-08-24T01:48:19.787Z,0
2016-08-24T01:49:19.778Z,0
2016-08-24T01:50:19.767Z,0
2016-08-24T01:51:18.350Z,0
2016-08-24T01:52:19.054Z,0
2016-08-24T01:53:19.039Z,0
2016-08-24T01:54:18.534Z,0
2016-08-24T01:55:19.034Z,0
2016-08-24T01:56:19.717Z,0
2016-08-24T01:57:19.010Z,0
2016-08-24T01:58:19.706Z,0
2016-08-24T01:59:18.996Z,0
2016-08-24T02:00:21.114Z,0
2016-08-24T02:01:18.973Z,0
2016-08-24T02:02:18.972Z,0
2016-08-24T02:03:18.974Z,0
2016-08-24T02:04:19.650Z,0
2016-08-24T02:05:18.940Z,0
2016-08-24T02:06:18.225Z,0
2016-08-24T02:07:18.922Z,0
2016-08-24T02:08:21.041Z,0
2016-08-24T02:09:18.923Z,0
2016-08-24T02:10:19.616Z,0
2016-08-24T02:11:20.361Z,0
2016-08-24T02:12:19.599Z,0
2016-08-24T02:13:20.308Z,0
2016-08-24T02:14:20.300Z,0
2016-08-24T02:15:19.573Z,0
2016-08-24T02:16:18.144Z,0
2016-08-24T02:17:18.855Z,0
2016-08-24T02:18:20.952Z,0
2016-08-24T02:19:18.860Z,0
2016-08-24T02:20:20.236Z,0
2016-08-24T02:21:18.106Z,0
2016-08-24T02:22:18.800Z,0
2016-08-24T02:23:18.793Z,0
2016-08-24T02:24:18.068Z,0
2016-08-24T02:25:18.785Z,0
2016-08-24T02:26:19.472Z,0
2016-08-24T02:27:18.787Z,0
2016-08-24T02:28:19.474Z,0
2016-08-24T02:29:18.759Z,0
2016-08-24T02:30:18.736Z,0
2016-08-24T02:31:18.727Z,0
2016-08-24T02:32:20.136Z,0
2016-08-24T02:33:19.434Z,0
2016-08-24T02:34:18.710Z,0
2016-08-24T02:35:20.102Z,0
2016-08-24T02:36:18.693Z,0
2016-08-24T02:37:18.671Z,0
2016-08-24T02:38:19.365Z,0
2016-08-24T02:39:19.379Z,0
2016-08-24T02:40:20.088Z,0
2016-08-24T02:41:18.649Z,0
2016-08-24T02:42:17.937Z,0
2016-08-24T02:43:20.750Z,0
2016-08-24T02:44:17.914Z,0
2016-08-24T02:45:19.317Z,0
2016-08-24T02:46:18.601Z,0
2016-08-24T02:47:18.591Z,0
2016-08-24T02:48:19.287Z,0
2016-08-24T02:49:18.567Z,0
2016-08-24T02:50:18.569Z,0
2016-08-24T02:51:19.262Z,0
2016-08-24T02:52:19.254Z,0
2016-08-24T02:53:19.253Z,0
2016-08-24T02:54:19.247Z,0
2016-08-24T02:55:20.651Z,0
2016-08-24T02:56:19.937Z,0
2016-08-24T02:57:18.514Z,0
2016-08-24T02:58:19.928Z,0
2016-08-24T02:59:19.212Z,0
2016-08-24T03:00:18.480Z,0
2016-08-24T03:01:19.899Z,0
2016-08-24T03:02:19.222Z,0
2016-08-24T03:03:18.460Z,0
2016-08-24T03:04:18.444Z,0
2016-08-24T03:05:19.855Z,0
2016-08-24T03:06:19.142Z,0
2016-08-24T03:07:19.153Z,0
2016-08-24T03:08:19.856Z,0
2016-08-24T03:09:19.207Z,0
2016-08-24T03:10:19.112Z,0
2016-08-24T03:11:20.531Z,0
2016-08-24T03:12:19.080Z,0
2016-08-24T03:13:18.372Z,0
2016-08-24T03:14:19.078Z,0
2016-08-24T03:15:18.355Z,0
2016-08-24T03:16:17.631Z,0
2016-08-24T03:17:17.626Z,0
2016-08-24T03:18:19.037Z,0
2016-08-24T03:19:19.735Z,0
2016-08-24T03:20:18.312Z,0
2016-08-24T03:21:19.720Z,0
2016-08-24T03:22:19.705Z,0
2016-08-24T03:23:18.283Z,0
2016-08-24T03:24:18.985Z,0
2016-08-24T03:25:19.672Z,0
2016-08-24T03:26:18.961Z,0
2016-08-24T03:27:18.963Z,0
2016-08-24T03:28:19.653Z,0
2016-08-24T03:29:18.951Z,0
2016-08-24T03:30:19.639Z,0
2016-08-24T03:31:18.209Z,0
2016-08-24T03:32:18.204Z,0
2016-08-24T03:33:18.190Z,0
2016-08-24T03:34:18.889Z,0
2016-08-24T03:35:19.612Z,0
2016-08-24T03:36:18.166Z,0
2016-08-24T03:37:17.445Z,0
2016-08-24T03:38:18.862Z,0
2016-08-24T03:39:18.866Z,0
2016-08-24T03:40:18.131Z,0
2016-08-24T03:41:19.566Z,0
2016-08-24T03:42:19.544Z,0
2016-08-24T03:43:18.104Z,0
2016-08-24T03:44:18.814Z,0
2016-08-24T03:45:18.084Z,0
2016-08-24T03:46:19.486Z,0
2016-08-24T03:47:18.085Z,0
2016-08-24T03:48:18.071Z,0
2016-08-24T03:49:17.343Z,0
2016-08-24T03:50:18.759Z,0
2016-08-24T03:51:20.157Z,0
2016-08-24T03:52:18.029Z,0
2016-08-24T03:53:18.733Z,0
2016-08-24T03:54:18.215Z,0
2016-08-24T03:55:19.413Z,0
2016-08-24T03:56:18.695Z,0
2016-08-24T03:57:19.402Z,0
2016-08-24T03:58:17.970Z,0
2016-08-24T03:59:19.376Z,0
2016-08-24T04:00:19.375Z,0
2016-08-24T04:01:19.371Z,0
2016-08-24T04:02:17.935Z,0
2016-08-24T04:03:20.063Z,0
2016-08-24T04:04:17.966Z,0
2016-08-24T04:05:17.906Z,0
2016-08-24T04:06:19.317Z,0
2016-08-24T04:07:17.895Z,0
2016-08-24T04:08:17.894Z,0
2016-08-24T04:09:18.602Z,0
2016-08-24T04:10:20.005Z,0
2016-08-24T04:11:18.569Z,0
2016-08-24T04:12:17.864Z,0
2016-08-24T04:13:17.132Z,0
2016-08-24T04:14:18.538Z,0
2016-08-24T04:15:18.550Z,0
2016-08-24T04:16:19.231Z,0
2016-08-24T04:17:17.818Z,0
2016-08-24T04:18:17.795Z,0
2016-08-24T04:19:19.204Z,0
2016-08-24T04:20:18.485Z,0
2016-08-24T04:21:18.473Z,0
2016-08-24T04:22:18.460Z,0
2016-08-24T04:23:18.454Z,0
2016-08-24T04:24:18.454Z,0
2016-08-24T04:25:17.752Z,0
2016-08-24T04:26:17.723Z,0
2016-08-24T04:27:17.010Z,0
2016-08-24T04:28:17.700Z,0
2016-08-24T04:29:17.699Z,0
2016-08-24T04:30:16.976Z,0
2016-08-24T04:31:17.673Z,5
2016-08-24T04:32:17.688Z,5
2016-08-24T04:33:18.377Z,5
2016-08-24T04:34:17.649Z,5
2016-08-24T04:35:18.366Z,5
2016-08-24T04:36:17.647Z,5
2016-08-24T04:37:17.623Z,5
2016-08-24T04:38:16.906Z,5
2016-08-24T04:39:19.015Z,5
2016-08-24T04:40:17.593Z,5
2016-08-24T04:41:17.588Z,10
2016-08-24T04:42:18.278Z,10
2016-08-24T04:43:18.275Z,10
2016-08-24T04:44:20.053Z,10
2016-08-24T04:45:18.992Z,10
2016-08-24T04:46:17.563Z,10
2016-08-24T04:47:16.837Z,10
2016-08-24T04:48:18.228Z,10
2016-08-24T04:49:16.801Z,15
2016-08-24T04:50:16.806Z,15
2016-08-24T04:51:17.507Z,15
2016-08-24T04:52:18.201Z,15
2016-08-24T04:53:18.902Z,15
2016-08-24T04:54:17.478Z,15
2016-08-24T04:55:18.170Z,15
2016-08-24T04:56:18.157Z,15
2016-08-24T04:57:16.741Z,20
2016-08-24T04:58:18.138Z,20
2016-08-24T04:59:17.416Z,20
2016-08-24T05:00:17.433Z,20
2016-08-24T05:01:19.540Z,20
2016-08-24T05:02:17.390Z,20
2016-08-24T05:03:18.112Z,20
2016-08-24T05:04:18.081Z,20
2016-08-24T05:05:16.652Z,20
2016-08-24T05:06:17.359Z,25
2016-08-24T05:07:18.077Z,25
2016-08-24T05:08:17.341Z,25
2016-08-24T05:09:18.042Z,25
2016-08-24T05:10:18.039Z,25
2016-08-24T05:11:16.600Z,25
2016-08-24T05:12:18.030Z,25
2016-08-24T05:13:17.293Z,25
2016-08-24T05:14:17.278Z,30
2016-08-24T05:15:17.989Z,30
2016-08-24T05:16:17.276Z,30
2016-08-24T05:17:18.668Z,30
2016-08-24T05:18:17.253Z,30
2016-08-24T05:19:17.256Z,30
2016-08-24T05:20:17.231Z,30
2016-08-24T05:21:17.943Z,30
2016-08-24T05:22:17.217Z,30
2016-08-24T05:23:17.909Z,30
2016-08-24T05:24:18.611Z,35
2016-08-24T05:25:17.897Z,35
2016-08-24T05:26:17.171Z,35
2016-08-24T05:27:16.462Z,35
2016-08-24T05:28:17.165Z,35
2016-08-24T05:29:17.143Z,35
2016-08-24T05:30:18.851Z,35
2016-08-24T05:31:17.854Z,35
2016-08-24T05:32:17.834Z,35
2016-08-24T05:33:18.530Z,35
2016-08-24T05:34:17.829Z,35
2016-08-24T05:35:17.803Z,40
2016-08-24T05:36:17.089Z,40
2016-08-24T05:37:18.497Z,40
2016-08-24T05:38:18.501Z,40
2016-08-24T05:39:17.772Z,40
2016-08-24T05:40:19.257Z,40
2016-08-24T05:41:17.076Z,40
2016-08-24T05:42:17.044Z,40
2016-08-24T05:43:17.736Z,40
2016-08-24T05:44:19.146Z,40
2016-08-24T05:45:17.719Z,40
2016-08-24T05:46:17.718Z,40
2016-08-24T05:47:16.996Z,40
2016-08-24T05:48:17.711Z,45
2016-08-24T05:49:17.680Z,45
2016-08-24T05:50:17.683Z,45
2016-08-24T05:51:17.666Z,45
2016-08-24T05:52:16.959Z,45
2016-08-24T05:53:17.651Z,45
2016-08-24T05:54:17.135Z,45
2016-08-24T05:55:16.932Z,45
2016-08-24T05:56:16.199Z,45
2016-08-24T05:57:17.638Z,45
2016-08-24T05:58:17.603Z,45
2016-08-24T05:59:16.896Z,45
2016-08-24T06:00:17.583Z,45
2016-08-24T06:01:16.882Z,45
2016-08-24T06:02:16.871Z,45
2016-08-24T06:03:18.283Z,50
2016-08-24T06:04:17.554Z,50
2016-08-24T06:05:16.133Z,50
2016-08-24T06:06:17.535Z,50
2016-08-24T06:07:18.248Z,50
2016-08-24T06:08:18.228Z,50
2016-08-24T06:09:16.095Z,50
2016-08-24T06:10:16.798Z,50
2016-08-24T06:11:17.494Z,50
2016-08-24T06:12:16.802Z,50
2016-08-24T06:13:16.771Z,50
2016-08-24T06:14:16.767Z,50
2016-08-24T06:15:16.751Z,50
2016-08-24T06:16:16.745Z,50
2016-08-24T06:17:17.480Z,50
2016-08-24T06:18:16.034Z,50
2016-08-24T06:19:16.029Z,50
2016-08-24T06:20:17.422Z,55
2016-08-24T06:21:16.704Z,55
2016-08-24T06:22:17.407Z,55
2016-08-24T06:23:16.699Z,55
2016-08-24T06:24:16.683Z,55
2016-08-24T06:25:15.972Z,55
2016-08-24T06:26:17.376Z,55
2016-08-24T06:27:17.389Z,55
2016-08-24T06:28:17.365Z,55
2016-08-24T06:29:17.340Z,55
2016-08-24T06:30:17.348Z,55
2016-08-24T06:31:16.632Z,55
2016-08-24T06:32:17.329Z,55
2016-08-24T06:33:17.314Z,55
2016-08-24T06:34:17.324Z,55
2016-08-24T06:35:16.597Z,55
2016-08-24T06:36:17.287Z,55
2016-08-24T06:37:16.579Z,55
2016-08-24T06:38:17.273Z,55
2016-08-24T06:39:16.555Z,55
2016-08-24T06:40:16.556Z,60
2016-08-24T06:41:17.256Z,60
2016-08-24T06:42:17.957Z,60
2016-08-24T06:43:15.824Z,60
2016-08-24T06:44:17.943Z,60
2016-08-24T06:45:17.226Z,60
2016-08-24T06:46:16.520Z,60
2016-08-24T06:47:15.798Z,60
2016-08-24T06:48:17.211Z,60
2016-08-24T06:49:17.904Z,60
2016-08-24T06:50:16.482Z,60
2016-08-24T06:51:17.892Z,60
2016-08-24T06:52:17.175Z,60
2016-08-24T06:53:17.166Z,60
2016-08-24T06:54:15.751Z,60
2016-08-24T06:55:15.740Z,60
2016-08-24T06:56:17.847Z,60
2016-08-24T06:57:16.422Z,60
2016-08-24T06:58:15.718Z,60
2016-08-24T06:59:17.136Z,60
2016-08-24T07:00:17.124Z,60
2016-08-24T07:01:16.415Z,60
2016-08-24T07:02:16.410Z,60
2016-08-24T07:03:16.416Z,65
2016-08-24T07:04:17.821Z,65
2016-08-24T07:05:17.081Z,65
2016-08-24T07:06:17.089Z,65
2016-08-24T07:07:17.075Z,65
2016-08-24T07:08:16.347Z,65
2016-08-24T07:09:17.052Z,65
2016-08-24T07:10:15.631Z,65
2016-08-24T07:11:17.731Z,65
2016-08-24T07:12:16.318Z,65
2016-08-24T07:13:17.023Z,65
2016-08-24T07:14:16.308Z,65
2016-08-24T07:15:17.725Z,65
2016-08-24T07:16:16.294Z,65
2016-08-24T07:17:16.992Z,65
2016-08-24T07:18:16.281Z,65
2016-08-24T07:19:15.564Z,65
2016-08-24T07:20:16.260Z,65
2016-08-24T07:21:17.684Z,65
2016-08-24T07:22:16.958Z,65
2016-08-24T07:23:16.236Z,65
2016-08-24T07:24:15.527Z,65
2016-08-24T07:25:17.646Z,65
2016-08-24T07:26:16.225Z,70
2016-08-24T07:27:16.917Z,70
2016-08-24T07:28:17.623Z,70
2016-08-24T07:29:17.607Z,70
2016-08-24T07:30:16.910Z,70
2016-08-24T07:31:16.897Z,70
2016-08-24T07:32:16.182Z,70
2016-08-24T07:33:15.462Z,70
2016-08-24T07:34:16.166Z,70
2016-08-24T07:35:16.859Z,70
2016-08-24T07:36:17.581Z,70
2016-08-24T07:37:16.151Z,70
2016-08-24T07:38:16.851Z,70
2016-08-24T07:39:16.847Z,70
2016-08-24T07:40:17.541Z,70
2016-08-24T07:41:15.406Z,70
2016-08-24T07:42:16.819Z,70
2016-08-24T07:43:15.406Z,70
2016-08-24T07:44:16.103Z,70
2016-08-24T07:45:16.093Z,70
2016-08-24T07:46:16.793Z,70
2016-08-24T07:47:17.518Z,70
2016-08-24T07:48:16.089Z,70
2016-08-24T07:49:16.782Z,70
2016-08-24T07:50:16.087Z,70
2016-08-24T07:51:16.049Z,70
2016-08-24T07:52:16.759Z,70
2016-08-24T07:53:16.047Z,75
2016-08-24T07:54:16.945Z,75
2016-08-24T07:55:17.442Z,75
2016-08-24T07:56:16.050Z,75
2016-08-24T07:57:16.724Z,70
2016-08-24T07:58:18.143Z,70
2016-08-24T07:59:16.005Z,70
2016-08-24T08:00:15.997Z,70
2016-08-24T08:01:17.414Z,75
2016-08-24T08:02:16.691Z,75
2016-08-24T08:03:16.697Z,75
2016-08-24T08:04:16.687Z,80
2016-08-24T08:05:15.967Z,80
2016-08-24T08:06:15.970Z,80
2016-08-24T08:07:15.958Z,85
2016-08-24T08:08:15.948Z,90
2016-08-24T08:09:16.655Z,85
2016-08-24T08:10:16.646Z,85
2016-08-24T08:11:16.654Z,85
2016-08-24T08:12:16.629Z,90
2016-08-24T08:13:16.631Z,90
2016-08-24T08:14:15.911Z,375
2016-08-24T08:15:16.613Z,1150
2016-08-24T08:16:16.717Z,1415
2016-08-24T08:17:17.315Z,1450
2016-08-24T08:18:15.893Z,1195
2016-08-24T08:19:15.905Z,535
2016-08-24T08:20:15.884Z,570
2016-08-24T08:21:15.876Z,155
2016-08-24T08:22:16.606Z,105
2016-08-24T08:23:15.867Z,110
2016-08-24T08:24:15.861Z,120
2016-08-24T08:25:16.566Z,130
2016-08-24T08:26:15.141Z,130
2016-08-24T08:27:15.142Z,135
2016-08-24T08:28:15.847Z,150
2016-08-24T08:29:17.247Z,145
2016-08-24T08:30:15.124Z,175
2016-08-24T08:31:15.834Z,470
2016-08-24T08:32:15.819Z,600
2016-08-24T08:33:16.533Z,575
2016-08-24T08:34:15.118Z,560
2016-08-24T08:35:16.522Z,530
2016-08-24T08:36:15.815Z,560
2016-08-24T08:37:16.520Z,540
2016-08-24T08:38:15.089Z,570
2016-08-24T08:39:15.794Z,460
2016-08-24T08:40:15.088Z,250
2016-08-24T08:41:15.783Z,340
2016-08-24T08:42:15.784Z,175
2016-08-24T08:43:15.776Z,185
2016-08-24T08:44:15.773Z,195
2016-08-24T08:45:15.065Z,165
2016-08-24T08:46:16.486Z,125
2016-08-24T08:47:15.784Z,95
2016-08-24T08:48:15.765Z,95
2016-08-24T08:49:15.758Z,95
2016-08-24T08:50:16.464Z,90
2016-08-24T08:51:17.177Z,90
2016-08-24T08:52:15.753Z,90
2016-08-24T08:53:16.442Z,95
2016-08-24T08:54:15.733Z,95
2016-08-24T08:55:15.735Z,90
2016-08-24T08:56:16.438Z,90
2016-08-24T08:57:16.429Z,90
2016-08-24T08:58:15.722Z,90
2016-08-24T08:59:15.714Z,90
2016-08-24T09:00:15.705Z,95
2016-08-24T09:01:16.408Z,90
2016-08-24T09:02:15.695Z,90
2016-08-24T09:03:15.698Z,90
2016-08-24T09:04:15.694Z,90
2016-08-24T09:05:17.100Z,90
2016-08-24T09:06:15.694Z,100
2016-08-24T09:07:15.678Z,185
2016-08-24T09:08:17.805Z,385
2016-08-24T09:09:14.951Z,480
2016-08-24T09:10:17.092Z,310
2016-08-24T09:11:17.082Z,330
2016-08-24T09:12:16.368Z,495
2016-08-24T09:13:14.942Z,515
2016-08-24T09:14:15.649Z,410
2016-08-24T09:15:15.643Z,145
2016-08-24T09:16:15.688Z,115
2016-08-24T09:17:16.348Z,255
2016-08-24T09:18:15.633Z,280
2016-08-24T09:19:17.038Z,225
2016-08-24T09:20:15.620Z,185
2016-08-24T09:21:15.618Z,165
2016-08-24T09:22:14.901Z,135
2016-08-24T09:23:16.317Z,125
2016-08-24T09:24:15.623Z,100
2016-08-24T09:25:15.601Z,110
2016-08-24T09:26:17.009Z,120
2016-08-24T09:27:14.883Z,90
2016-08-24T09:28:16.288Z,120
2016-08-24T09:29:15.583Z,135
2016-08-24T09:30:14.867Z,95
2016-08-24T09:31:15.575Z,100
2016-08-24T09:32:16.281Z,135
2016-08-24T09:33:16.281Z,285
2016-08-24T09:34:15.562Z,210
2016-08-24T09:35:14.845Z,145
2016-08-24T09:36:15.550Z,120
2016-08-24T09:37:15.552Z,100
2016-08-24T09:38:15.535Z,95
2016-08-24T09:39:14.840Z,95
2016-08-24T09:40:16.246Z,90
2016-08-24T09:41:15.535Z,95
2016-08-24T09:42:16.238Z,95
2016-08-24T09:43:16.231Z,95
2016-08-24T09:44:16.225Z,95
2016-08-24T09:45:15.509Z,95
2016-08-24T09:46:15.507Z,100
2016-08-24T09:47:15.493Z,155
2016-08-24T09:48:15.506Z,145
2016-08-24T09:49:16.213Z,100
2016-08-24T09:50:15.482Z,95
2016-08-24T09:51:14.775Z,110
2016-08-24T09:52:15.488Z,105
2016-08-24T09:53:15.474Z,110
2016-08-24T09:54:15.870Z,105
2016-08-24T09:55:14.761Z,100
2016-08-24T09:56:15.464Z,105
2016-08-24T09:57:16.165Z,120
2016-08-24T09:58:15.455Z,135
2016-08-24T09:59:14.736Z,170
2016-08-24T10:00:16.169Z,135
2016-08-24T10:01:16.148Z,110
2016-08-24T10:02:14.746Z,105
2016-08-24T10:03:15.733Z,115
2016-08-24T10:04:16.852Z,130
2016-08-24T10:05:17.550Z,105
2016-08-24T10:06:15.425Z,105
2016-08-24T10:07:15.430Z,110
2016-08-24T10:08:16.825Z,105
2016-08-24T10:09:16.106Z,135
2016-08-24T10:10:16.818Z,165
2016-08-24T10:11:15.390Z,115
2016-08-24T10:12:16.090Z,110
2016-08-24T10:13:16.090Z,115
2016-08-24T10:14:16.086Z,140
2016-08-24T10:15:16.080Z,165
2016-08-24T10:16:15.368Z,150
2016-08-24T10:17:16.075Z,155
2016-08-24T10:18:15.358Z,130
2016-08-24T10:19:17.477Z,120
2016-08-24T10:20:15.352Z,125
2016-08-24T10:21:16.143Z,125
2016-08-24T10:22:15.344Z,135
2016-08-24T10:23:16.043Z,185
2016-08-24T10:24:16.040Z,200
2016-08-24T10:25:15.325Z,195
2016-08-24T10:26:14.641Z,215
2016-08-24T10:27:16.027Z,150
2016-08-24T10:28:14.608Z,145
2016-08-24T10:29:16.017Z,140
2016-08-24T10:30:14.603Z,140
2016-08-24T10:31:14.589Z,150
2016-08-24T10:32:16.010Z,210
2016-08-24T10:33:15.292Z,180
2016-08-24T10:34:16.005Z,185
2016-08-24T10:35:15.286Z,190
2016-08-24T10:36:15.279Z,205
2016-08-24T10:37:17.400Z,220
2016-08-24T10:38:15.271Z,325
2016-08-24T10:39:16.682Z,290
2016-08-24T10:40:14.556Z,215
2016-08-24T10:41:15.957Z,215
2016-08-24T10:42:15.261Z,225
2016-08-24T10:43:15.268Z,220
2016-08-24T10:44:15.254Z,310
2016-08-24T10:45:15.950Z,225
2016-08-24T10:46:16.654Z,255
2016-08-24T10:47:15.254Z,405
2016-08-24T10:48:15.236Z,485
2016-08-24T10:49:14.525Z,455
2016-08-24T10:50:15.218Z,230
2016-08-24T10:51:15.933Z,270
2016-08-24T10:52:16.638Z,415
2016-08-24T10:53:16.627Z,575
2016-08-24T10:54:16.636Z,955
2016-08-24T10:55:16.625Z,970
2016-08-24T10:56:16.618Z,900
2016-08-24T10:57:15.914Z,1705
2016-08-24T10:58:16.607Z,860
2016-08-24T10:59:16.621Z,1225
2016-08-24T11:00:15.198Z,675
2016-08-24T11:01:15.896Z,460
2016-08-24T11:02:15.195Z,550
2016-08-24T11:03:15.201Z,375
2016-08-24T11:04:15.913Z,390
2016-08-24T11:05:14.472Z,400
2016-08-24T11:06:15.183Z,690
2016-08-24T11:07:16.599Z,795
2016-08-24T11:08:15.885Z,1165
2016-08-24T11:09:15.938Z,1535
2016-08-24T11:10:15.198Z,1765
2016-08-24T11:11:15.891Z,1450
2016-08-24T11:12:15.172Z,1760
2016-08-24T11:13:16.594Z,2120
2016-08-24T11:14:15.198Z,2090
2016-08-24T11:15:15.895Z,2060
2016-08-24T11:16:15.184Z,2020
2016-08-24T11:17:15.172Z,2010
2016-08-24T11:18:15.195Z,2005
2016-08-24T11:19:14.478Z,2015
2016-08-24T11:20:15.203Z,2090
2016-08-24T11:21:15.898Z,2140
2016-08-24T11:22:15.910Z,2150
2016-08-24T11:23:16.617Z,2110
2016-08-24T11:24:14.495Z,2075
2016-08-24T11:25:15.912Z,2085
2016-08-24T11:26:15.925Z,2120
2016-08-24T11:27:15.943Z,2125
2016-08-24T11:28:15.934Z,2075
2016-08-24T11:29:15.932Z,2045
2016-08-24T11:30:16.642Z,2055
2016-08-24T11:31:14.524Z,2065
2016-08-24T11:32:15.245Z,1995
2016-08-24T11:33:15.252Z,1870
2016-08-24T11:34:16.675Z,1720
2016-08-24T11:35:15.971Z,1695
2016-08-24T11:36:14.562Z,1815
2016-08-24T11:37:15.284Z,1915
2016-08-24T11:38:15.977Z,1990
2016-08-24T11:39:15.971Z,2045
2016-08-24T11:40:14.595Z,2115
2016-08-24T11:41:15.988Z,2145
2016-08-24T11:42:15.284Z,2230
2016-08-24T11:43:15.354Z,2325
2016-08-24T11:44:16.018Z,2345
2016-08-24T11:45:15.313Z,2380
2016-08-24T11:46:16.018Z,2390
2016-08-24T11:47:14.606Z,2350
2016-08-24T11:48:15.321Z,2310
2016-08-24T11:49:15.349Z,2335
2016-08-24T11:50:16.041Z,2380
2016-08-24T11:51:15.339Z,2430
2016-08-24T11:52:16.104Z,2430
2016-08-24T11:53:16.062Z,2390
2016-08-24T11:54:14.649Z,2360
2016-08-24T11:55:17.534Z,2285
2016-08-24T11:56:16.084Z,2255
2016-08-24T11:57:16.083Z,2280
2016-08-24T11:58:16.853Z,2270
2016-08-24T11:59:16.824Z,2295
2016-08-24T12:00:15.421Z,2340
2016-08-24T12:01:14.705Z,2355
2016-08-24T12:02:16.119Z,2360
2016-08-24T12:03:16.137Z,2340
2016-08-24T12:04:17.605Z,2320
2016-08-24T12:05:15.439Z,2290
2016-08-24T12:06:16.865Z,2300
2016-08-24T12:07:16.159Z,2315
2016-08-24T12:08:15.462Z,2320
2016-08-24T12:09:15.516Z,2325
2016-08-24T12:10:16.900Z,2305
2016-08-24T12:11:15.482Z,2280
2016-08-24T12:12:15.494Z,2210
2016-08-24T12:13:15.507Z,2125
2016-08-24T12:14:16.928Z,2085
2016-08-24T12:15:16.219Z,2125
2016-08-24T12:16:15.518Z,2225
2016-08-24T12:17:16.231Z,2310
2016-08-24T12:18:15.537Z,2365
2016-08-24T12:19:16.265Z,2340
2016-08-24T12:20:14.841Z,2305
2016-08-24T12:21:16.294Z,2270
2016-08-24T12:22:17.250Z,2265
2016-08-24T12:23:17.045Z,2280
2016-08-24T12:24:15.595Z,2315
2016-08-24T12:25:15.605Z,2330
2016-08-24T12:26:16.375Z,2305
2016-08-24T12:27:15.630Z,2230
2016-08-24T12:28:16.335Z,2075
2016-08-24T12:29:15.636Z,2080
2016-08-24T12:30:15.643Z,2155
2016-08-24T12:31:15.660Z,2225
2016-08-24T12:32:17.067Z,2305
2016-08-24T12:33:15.669Z,2360
2016-08-24T12:34:17.084Z,2430
2016-08-24T12:35:16.404Z,2350
2016-08-24T12:36:15.695Z,2130
2016-08-24T12:37:15.705Z,1840
2016-08-24T12:38:16.409Z,1720
2016-08-24T12:39:17.135Z,1965
2016-08-24T12:40:17.148Z,2125
2016-08-24T12:41:16.442Z,2355
2016-08-24T12:42:17.199Z,2365
2016-08-24T12:43:17.173Z,2285
2016-08-24T12:44:15.049Z,2235
2016-08-24T12:45:15.778Z,2245
2016-08-24T12:46:17.905Z,2255
2016-08-24T12:47:16.503Z,2250
2016-08-24T12:48:17.207Z,2220
2016-08-24T12:49:15.818Z,2220
2016-08-24T12:50:15.815Z,2185
2016-08-24T12:51:15.112Z,2205
2016-08-24T12:52:17.266Z,2205
2016-08-24T12:53:16.555Z,2215
2016-08-24T12:54:15.845Z,2215
2016-08-24T12:55:17.973Z,2225
2016-08-24T12:56:16.590Z,2210
2016-08-24T12:57:16.618Z,2180
2016-08-24T12:58:16.604Z,2150
2016-08-24T12:59:16.605Z,2145
2016-08-24T13:00:18.028Z,2120
2016-08-24T13:01:17.334Z,2110
2016-08-24T13:02:15.908Z,2100
2016-08-24T13:03:16.630Z,2095
2016-08-24T13:04:16.647Z,2105
2016-08-24T13:05:17.356Z,2135
2016-08-24T13:06:17.367Z,2125
2016-08-24T13:07:16.660Z,2105
2016-08-24T13:08:15.960Z,2060
2016-08-24T13:09:16.019Z,2020
2016-08-24T13:10:17.407Z,1995
2016-08-24T13:11:16.003Z,1970
2016-08-24T13:12:16.710Z,1970
2016-08-24T13:13:16.742Z,1965
2016-08-24T13:14:16.017Z,1955
2016-08-24T13:15:16.722Z,1980
2016-08-24T13:16:16.033Z,2005
2016-08-24T13:17:16.751Z,2010
2016-08-24T13:18:16.061Z,2000
2016-08-24T13:19:17.470Z,1945
2016-08-24T13:20:16.775Z,1905
2016-08-24T13:21:16.087Z,1890
2016-08-24T13:22:16.078Z,1875
2016-08-24T13:23:16.810Z,1855
2016-08-24T13:24:16.811Z,1825
2016-08-24T13:25:16.812Z,1800
2016-08-24T13:26:16.822Z,1785
2016-08-24T13:27:16.124Z,1805
2016-08-24T13:28:16.836Z,1825
2016-08-24T13:29:15.423Z,1840
2016-08-24T13:30:17.617Z,1825
2016-08-24T13:31:15.442Z,1790
2016-08-24T13:32:16.869Z,1740
2016-08-24T13:33:16.168Z,1740
2016-08-24T13:34:16.171Z,1755
2016-08-24T13:35:16.908Z,1785
2016-08-24T13:36:16.181Z,1825
2016-08-24T13:37:17.606Z,1845
2016-08-24T13:38:16.914Z,1855
2016-08-24T13:39:15.504Z,1845
2016-08-24T13:40:16.913Z,1810
2016-08-24T13:41:16.929Z,1705
2016-08-24T13:42:17.668Z,1530
2016-08-24T13:43:16.947Z,1380
2016-08-24T13:44:15.726Z,1385
2016-08-24T13:45:16.258Z,1500
2016-08-24T13:46:17.662Z,1640
2016-08-24T13:47:16.982Z,1690
2016-08-24T13:48:16.965Z,1650
2016-08-24T13:49:17.685Z,1635
2016-08-24T13:50:16.981Z,1650
2016-08-24T13:51:16.280Z,1650
2016-08-24T13:52:17.718Z,1670
2016-08-24T13:53:17.003Z,1685
2016-08-24T13:54:17.010Z,1705
2016-08-24T13:55:15.607Z,1740
2016-08-24T13:56:16.323Z,1765
2016-08-24T13:57:15.617Z,1775
2016-08-24T13:58:15.621Z,1755
2016-08-24T13:59:15.632Z,1675
2016-08-24T14:00:16.351Z,1585
2016-08-24T14:01:16.355Z,1540
2016-08-24T14:02:17.063Z,1570
2016-08-24T14:03:17.075Z,1610
2016-08-24T14:04:17.084Z,1605
2016-08-24T14:05:16.376Z,1595
2016-08-24T14:06:15.697Z,1585
2016-08-24T14:07:16.396Z,1610